sensor_id;sensor_type;location;lat;lon;timestamp;P1;durP1;ratioP1;P2;durP2;ratioP2
18102;SDS011;9178;51.120;6.192;2023-01-16T00:01:13;5.73;;;0.90;;
18102;SDS011;9178;51.120;6.192;2023-01-16T00:03:41;3.80;;;1.23;;
18102;SDS011;9178;51.120;6.192;2023-01-16T00:06:08;3.27;;;0.90;;
18102;SDS011;9178;51.120;6.192;2023-01-16T00:08:35;4.10;;;0.83;;
18102;SDS011;9178;51.120;6.192;2023-01-16T00:11:03;3.50;;;1.00;;
18102;SDS011;9178;51.120;6.192;2023-01-16T00:13:30;4.27;;;0.90;;
18102;SDS011;9178;51.120;6.192;2023-01-16T00:15:57;5.73;;;1.00;;
18102;SDS011;9178;51.120;6.192;2023-01-16T00:18:24;3.00;;;0.90;;
18102;SDS011;9178;51.120;6.192;2023-01-16T00:20:51;3.43;;;1.20;;
18102;SDS011;9178;51.120;6.192;2023-01-16T00:23:17;1.93;;;0.90;;
18102;SDS011;9178;51.120;6.192;2023-01-16T00:25:44;3.07;;;0.97;;
18102;SDS011;9178;51.120;6.192;2023-01-16T00:28:12;4.00;;;0.90;;
18102;SDS011;9178;51.120;6.192;2023-01-16T00:30:40;5.67;;;1.30;;
18102;SDS011;9178;51.120;6.192;2023-01-16T00:33:08;5.83;;;1.50;;
18102;SDS011;9178;51.120;6.192;2023-01-16T00:35:35;3.33;;;1.20;;
18102;SDS011;9178;51.120;6.192;2023-01-16T00:38:02;5.50;;;1.10;;
18102;SDS011;9178;51.120;6.192;2023-01-16T00:40:29;1.87;;;1.00;;
18102;SDS011;9178;51.120;6.192;2023-01-16T00:42:56;1.80;;;0.90;;
18102;SDS011;9178;51.120;6.192;2023-01-16T00:45:24;2.83;;;1.10;;
18102;SDS011;9178;51.120;6.192;2023-01-16T00:47:51;2.63;;;1.10;;
18102;SDS011;9178;51.120;6.192;2023-01-16T00:50:18;4.30;;;1.20;;
18102;SDS011;9178;51.120;6.192;2023-01-16T00:52:45;4.77;;;1.03;;
18102;SDS011;9178;51.120;6.192;2023-01-16T00:55:12;4.30;;;0.90;;
18102;SDS011;9178;51.120;6.192;2023-01-16T00:57:38;3.20;;;1.23;;
18102;SDS011;9178;51.120;6.192;2023-01-16T01:00:06;7.53;;;1.10;;
18102;SDS011;9178;51.120;6.192;2023-01-16T01:02:35;2.97;;;0.80;;
18102;SDS011;9178;51.120;6.192;2023-01-16T01:05:02;4.13;;;1.00;;
18102;SDS011;9178;51.120;6.192;2023-01-16T01:07:31;1.93;;;1.03;;
18102;SDS011;9178;51.120;6.192;2023-01-16T01:09:58;3.47;;;1.00;;
18102;SDS011;9178;51.120;6.192;2023-01-16T01:12:24;3.10;;;1.20;;
18102;SDS011;9178;51.120;6.192;2023-01-16T01:14:51;3.33;;;0.90;;
18102;SDS011;9178;51.120;6.192;2023-01-16T01:17:18;3.80;;;0.90;;
18102;SDS011;9178;51.120;6.192;2023-01-16T01:19:46;1.83;;;1.00;;
18102;SDS011;9178;51.120;6.192;2023-01-16T01:22:13;3.00;;;0.90;;
18102;SDS011;9178;51.120;6.192;2023-01-16T01:24:41;4.70;;;0.97;;
18102;SDS011;9178;51.120;6.192;2023-01-16T01:27:07;2.07;;;0.80;;
18102;SDS011;9178;51.120;6.192;2023-01-16T01:29:34;5.53;;;1.10;;
18102;SDS011;9178;51.120;6.192;2023-01-16T01:32:01;4.50;;;1.00;;
18102;SDS011;9178;51.120;6.192;2023-01-16T01:34:28;3.73;;;1.10;;
18102;SDS011;9178;51.120;6.192;2023-01-16T01:36:59;3.30;;;1.17;;
18102;SDS011;9178;51.120;6.192;2023-01-16T01:39:26;1.90;;;0.80;;
18102;SDS011;9178;51.120;6.192;2023-01-16T01:41:53;2.63;;;0.80;;
18102;SDS011;9178;51.120;6.192;2023-01-16T01:47:28;5.43;;;1.20;;
18102;SDS011;9178;51.120;6.192;2023-01-16T01:49:58;3.07;;;0.80;;
18102;SDS011;9178;51.120;6.192;2023-01-16T01:52:29;3.37;;;1.07;;
18102;SDS011;9178;51.120;6.192;2023-01-16T01:54:58;3.17;;;0.90;;
18102;SDS011;9178;51.120;6.192;2023-01-16T01:57:29;1.90;;;1.00;;
18102;SDS011;9178;51.120;6.192;2023-01-16T02:00:00;4.70;;;0.70;;
18102;SDS011;9178;51.120;6.192;2023-01-16T02:02:31;2.53;;;0.70;;
18102;SDS011;9178;51.120;6.192;2023-01-16T02:05:01;2.33;;;0.70;;
18102;SDS011;9178;51.120;6.192;2023-01-16T02:07:31;1.57;;;1.00;;
18102;SDS011;9178;51.120;6.192;2023-01-16T02:10:01;1.97;;;0.90;;
18102;SDS011;9178;51.120;6.192;2023-01-16T02:12:35;3.47;;;0.60;;
18102;SDS011;9178;51.120;6.192;2023-01-16T02:15:02;4.23;;;0.80;;
18102;SDS011;9178;51.120;6.192;2023-01-16T02:17:29;4.43;;;0.90;;
18102;SDS011;9178;51.120;6.192;2023-01-16T02:20:16;2.20;;;0.70;;
18102;SDS011;9178;51.120;6.192;2023-01-16T02:23:01;3.10;;;0.90;;
18102;SDS011;9178;51.120;6.192;2023-01-16T02:25:53;2.33;;;0.73;;
18102;SDS011;9178;51.120;6.192;2023-01-16T02:28:50;4.87;;;0.87;;
18102;SDS011;9178;51.120;6.192;2023-01-16T02:31:41;2.90;;;0.87;;
18102;SDS011;9178;51.120;6.192;2023-01-16T02:34:27;4.67;;;1.00;;
18102;SDS011;9178;51.120;6.192;2023-01-16T02:37:10;4.97;;;0.90;;
18102;SDS011;9178;51.120;6.192;2023-01-16T02:39:44;4.70;;;0.90;;
18102;SDS011;9178;51.120;6.192;2023-01-16T02:42:20;4.20;;;0.90;;
18102;SDS011;9178;51.120;6.192;2023-01-16T02:44:54;1.47;;;0.90;;
18102;SDS011;9178;51.120;6.192;2023-01-16T02:47:28;2.60;;;0.93;;
18102;SDS011;9178;51.120;6.192;2023-01-16T02:50:03;4.30;;;0.93;;
18102;SDS011;9178;51.120;6.192;2023-01-16T02:52:36;4.83;;;1.17;;
18102;SDS011;9178;51.120;6.192;2023-01-16T02:55:08;4.00;;;0.90;;
18102;SDS011;9178;51.120;6.192;2023-01-16T02:57:43;2.27;;;0.67;;
18102;SDS011;9178;51.120;6.192;2023-01-16T03:00:14;2.40;;;0.70;;
18102;SDS011;9178;51.120;6.192;2023-01-16T03:02:45;3.37;;;1.00;;
18102;SDS011;9178;51.120;6.192;2023-01-16T03:05:12;4.63;;;1.00;;
18102;SDS011;9178;51.120;6.192;2023-01-16T03:13:56;2.47;;;0.80;;
18102;SDS011;9178;51.120;6.192;2023-01-16T03:16:44;2.20;;;1.00;;
18102;SDS011;9178;51.120;6.192;2023-01-16T03:19:25;2.77;;;0.60;;
18102;SDS011;9178;51.120;6.192;2023-01-16T03:22:02;3.30;;;0.90;;
18102;SDS011;9178;51.120;6.192;2023-01-16T03:24:41;3.30;;;0.70;;
18102;SDS011;9178;51.120;6.192;2023-01-16T03:27:22;1.87;;;0.73;;
18102;SDS011;9178;51.120;6.192;2023-01-16T03:29:57;2.23;;;0.70;;
18102;SDS011;9178;51.120;6.192;2023-01-16T03:32:32;3.73;;;0.70;;
18102;SDS011;9178;51.120;6.192;2023-01-16T03:35:05;5.50;;;0.80;;
18102;SDS011;9178;51.120;6.192;2023-01-16T03:37:35;3.10;;;0.70;;
18102;SDS011;9178;51.120;6.192;2023-01-16T03:40:07;2.07;;;0.57;;
18102;SDS011;9178;51.120;6.192;2023-01-16T03:42:38;1.23;;;0.57;;
18102;SDS011;9178;51.120;6.192;2023-01-16T03:45:10;1.60;;;0.70;;
18102;SDS011;9178;51.120;6.192;2023-01-16T03:47:42;1.37;;;0.80;;
18102;SDS011;9178;51.120;6.192;2023-01-16T03:50:16;2.27;;;1.17;;
18102;SDS011;9178;51.120;6.192;2023-01-16T03:52:47;2.57;;;0.90;;
18102;SDS011;9178;51.120;6.192;2023-01-16T03:55:18;3.10;;;0.77;;
18102;SDS011;9178;51.120;6.192;2023-01-16T03:57:53;1.33;;;0.60;;
18102;SDS011;9178;51.120;6.192;2023-01-16T04:00:23;1.73;;;0.70;;
18102;SDS011;9178;51.120;6.192;2023-01-16T04:02:58;2.20;;;0.57;;
18102;SDS011;9178;51.120;6.192;2023-01-16T04:05:34;3.90;;;1.00;;
18102;SDS011;9178;51.120;6.192;2023-01-16T04:08:05;0.97;;;0.60;;
18102;SDS011;9178;51.120;6.192;2023-01-16T04:10:38;1.70;;;0.70;;
18102;SDS011;9178;51.120;6.192;2023-01-16T04:13:09;2.27;;;0.60;;
18102;SDS011;9178;51.120;6.192;2023-01-16T04:15:39;1.53;;;0.57;;
18102;SDS011;9178;51.120;6.192;2023-01-16T04:18:10;2.30;;;0.60;;
18102;SDS011;9178;51.120;6.192;2023-01-16T04:20:38;3.23;;;0.80;;
18102;SDS011;9178;51.120;6.192;2023-01-16T04:23:08;4.17;;;0.70;;
18102;SDS011;9178;51.120;6.192;2023-01-16T04:25:35;2.90;;;1.13;;
18102;SDS011;9178;51.120;6.192;2023-01-16T04:28:02;1.73;;;0.63;;
18102;SDS011;9178;51.120;6.192;2023-01-16T04:30:29;1.30;;;0.50;;
18102;SDS011;9178;51.120;6.192;2023-01-16T04:32:55;2.50;;;0.60;;
18102;SDS011;9178;51.120;6.192;2023-01-16T04:35:22;3.67;;;0.80;;
18102;SDS011;9178;51.120;6.192;2023-01-16T04:37:50;1.10;;;0.50;;
18102;SDS011;9178;51.120;6.192;2023-01-16T04:40:17;1.03;;;0.43;;
18102;SDS011;9178;51.120;6.192;2023-01-16T04:42:44;2.87;;;0.67;;
18102;SDS011;9178;51.120;6.192;2023-01-16T04:45:11;2.17;;;0.67;;
18102;SDS011;9178;51.120;6.192;2023-01-16T04:47:38;1.73;;;0.40;;
18102;SDS011;9178;51.120;6.192;2023-01-16T04:50:05;2.43;;;0.60;;
18102;SDS011;9178;51.120;6.192;2023-01-16T04:52:33;2.87;;;0.50;;
18102;SDS011;9178;51.120;6.192;2023-01-16T04:55:01;2.37;;;0.60;;
18102;SDS011;9178;51.120;6.192;2023-01-16T04:57:28;2.00;;;0.60;;
18102;SDS011;9178;51.120;6.192;2023-01-16T04:59:55;2.03;;;0.87;;
18102;SDS011;9178;51.120;6.192;2023-01-16T05:02:22;2.60;;;0.57;;
18102;SDS011;9178;51.120;6.192;2023-01-16T05:04:49;1.37;;;0.50;;
18102;SDS011;9178;51.120;6.192;2023-01-16T05:07:15;1.47;;;0.50;;
18102;SDS011;9178;51.120;6.192;2023-01-16T05:09:42;2.47;;;0.60;;
18102;SDS011;9178;51.120;6.192;2023-01-16T05:12:10;1.33;;;0.60;;
18102;SDS011;9178;51.120;6.192;2023-01-16T05:14:37;1.67;;;0.40;;
18102;SDS011;9178;51.120;6.192;2023-01-16T05:17:04;1.03;;;0.50;;
18102;SDS011;9178;51.120;6.192;2023-01-16T05:19:31;2.43;;;0.47;;
18102;SDS011;9178;51.120;6.192;2023-01-16T05:21:57;1.20;;;0.60;;
18102;SDS011;9178;51.120;6.192;2023-01-16T05:24:24;4.03;;;0.60;;
18102;SDS011;9178;51.120;6.192;2023-01-16T05:26:51;2.53;;;0.80;;
18102;SDS011;9178;51.120;6.192;2023-01-16T05:29:19;2.50;;;0.60;;
18102;SDS011;9178;51.120;6.192;2023-01-16T05:31:46;1.80;;;0.50;;
18102;SDS011;9178;51.120;6.192;2023-01-16T05:34:13;0.70;;;0.50;;
18102;SDS011;9178;51.120;6.192;2023-01-16T05:36:39;1.57;;;0.63;;
18102;SDS011;9178;51.120;6.192;2023-01-16T05:39:06;2.67;;;0.60;;
18102;SDS011;9178;51.120;6.192;2023-01-16T05:41:34;1.47;;;0.60;;
18102;SDS011;9178;51.120;6.192;2023-01-16T05:44:01;2.07;;;0.50;;
18102;SDS011;9178;51.120;6.192;2023-01-16T05:46:29;0.63;;;0.40;;
18102;SDS011;9178;51.120;6.192;2023-01-16T05:48:56;3.33;;;0.50;;
18102;SDS011;9178;51.120;6.192;2023-01-16T05:51:22;1.90;;;0.40;;
18102;SDS011;9178;51.120;6.192;2023-01-16T05:53:49;2.20;;;0.90;;
18102;SDS011;9178;51.120;6.192;2023-01-16T05:56:16;2.43;;;0.90;;
18102;SDS011;9178;51.120;6.192;2023-01-16T05:58:46;0.70;;;0.50;;
18102;SDS011;9178;51.120;6.192;2023-01-16T06:01:13;5.57;;;0.80;;
18102;SDS011;9178;51.120;6.192;2023-01-16T06:03:41;0.80;;;0.60;;
18102;SDS011;9178;51.120;6.192;2023-01-16T06:06:08;2.03;;;0.60;;
18102;SDS011;9178;51.120;6.192;2023-01-16T06:08:34;1.20;;;0.50;;
18102;SDS011;9178;51.120;6.192;2023-01-16T06:11:01;2.50;;;0.70;;
18102;SDS011;9178;51.120;6.192;2023-01-16T06:13:28;3.67;;;0.70;;
18102;SDS011;9178;51.120;6.192;2023-01-16T06:15:55;1.43;;;0.77;;
18102;SDS011;9178;51.120;6.192;2023-01-16T06:18:21;1.33;;;0.57;;
18102;SDS011;9178;51.120;6.192;2023-01-16T06:20:49;1.77;;;0.73;;
18102;SDS011;9178;51.120;6.192;2023-01-16T06:23:16;3.13;;;0.60;;
18102;SDS011;9178;51.120;6.192;2023-01-16T06:25:43;4.00;;;0.90;;
18102;SDS011;9178;51.120;6.192;2023-01-16T06:28:13;2.47;;;0.80;;
18102;SDS011;9178;51.120;6.192;2023-01-16T06:30:40;0.80;;;0.60;;
18102;SDS011;9178;51.120;6.192;2023-01-16T06:33:07;1.63;;;0.47;;
18102;SDS011;9178;51.120;6.192;2023-01-16T06:35:36;3.73;;;0.70;;
18102;SDS011;9178;51.120;6.192;2023-01-16T06:38:04;1.10;;;0.50;;
18102;SDS011;9178;51.120;6.192;2023-01-16T06:40:31;1.63;;;0.40;;
18102;SDS011;9178;51.120;6.192;2023-01-16T06:42:58;1.37;;;0.50;;
18102;SDS011;9178;51.120;6.192;2023-01-16T06:45:24;1.83;;;0.70;;
18102;SDS011;9178;51.120;6.192;2023-01-16T06:47:51;3.67;;;0.60;;
18102;SDS011;9178;51.120;6.192;2023-01-16T06:50:18;1.07;;;0.40;;
18102;SDS011;9178;51.120;6.192;2023-01-16T06:52:45;1.30;;;0.60;;
18102;SDS011;9178;51.120;6.192;2023-01-16T06:55:14;1.93;;;0.67;;
18102;SDS011;9178;51.120;6.192;2023-01-16T06:57:41;1.97;;;0.70;;
18102;SDS011;9178;51.120;6.192;2023-01-16T07:00:08;2.13;;;0.50;;
18102;SDS011;9178;51.120;6.192;2023-01-16T07:02:35;1.80;;;0.50;;
18102;SDS011;9178;51.120;6.192;2023-01-16T07:05:05;2.27;;;0.40;;
18102;SDS011;9178;51.120;6.192;2023-01-16T07:07:32;1.33;;;0.60;;
18102;SDS011;9178;51.120;6.192;2023-01-16T07:09:59;2.23;;;0.63;;
18102;SDS011;9178;51.120;6.192;2023-01-16T07:12:28;1.63;;;0.60;;
18102;SDS011;9178;51.120;6.192;2023-01-16T07:14:56;1.70;;;0.57;;
18102;SDS011;9178;51.120;6.192;2023-01-16T07:17:40;1.70;;;0.50;;
18102;SDS011;9178;51.120;6.192;2023-01-16T07:20:25;0.73;;;0.47;;
18102;SDS011;9178;51.120;6.192;2023-01-16T07:23:16;1.80;;;0.57;;
18102;SDS011;9178;51.120;6.192;2023-01-16T07:25:47;1.20;;;0.70;;
18102;SDS011;9178;51.120;6.192;2023-01-16T07:28:17;1.63;;;0.63;;
18102;SDS011;9178;51.120;6.192;2023-01-16T07:30:44;1.50;;;0.80;;
18102;SDS011;9178;51.120;6.192;2023-01-16T07:33:11;2.93;;;0.80;;
18102;SDS011;9178;51.120;6.192;2023-01-16T07:35:39;3.50;;;0.80;;
18102;SDS011;9178;51.120;6.192;2023-01-16T07:38:05;1.80;;;0.63;;
18102;SDS011;9178;51.120;6.192;2023-01-16T07:40:32;1.70;;;0.70;;
18102;SDS011;9178;51.120;6.192;2023-01-16T07:42:59;0.60;;;0.60;;
18102;SDS011;9178;51.120;6.192;2023-01-16T07:45:27;3.33;;;0.80;;
18102;SDS011;9178;51.120;6.192;2023-01-16T07:47:54;1.90;;;0.80;;
18102;SDS011;9178;51.120;6.192;2023-01-16T07:50:21;5.17;;;1.20;;
18102;SDS011;9178;51.120;6.192;2023-01-16T07:52:48;3.57;;;0.80;;
18102;SDS011;9178;51.120;6.192;2023-01-16T07:55:14;2.57;;;0.97;;
18102;SDS011;9178;51.120;6.192;2023-01-16T07:57:42;2.73;;;1.20;;
18102;SDS011;9178;51.120;6.192;2023-01-16T08:00:09;1.40;;;0.70;;
18102;SDS011;9178;51.120;6.192;2023-01-16T08:02:38;2.83;;;0.70;;
18102;SDS011;9178;51.120;6.192;2023-01-16T08:05:06;2.27;;;0.93;;
18102;SDS011;9178;51.120;6.192;2023-01-16T08:07:34;2.20;;;0.83;;
18102;SDS011;9178;51.120;6.192;2023-01-16T08:10:01;3.43;;;0.80;;
18102;SDS011;9178;51.120;6.192;2023-01-16T08:12:28;0.97;;;0.50;;
18102;SDS011;9178;51.120;6.192;2023-01-16T08:14:55;1.07;;;0.67;;
18102;SDS011;9178;51.120;6.192;2023-01-16T08:17:21;3.00;;;1.00;;
18102;SDS011;9178;51.120;6.192;2023-01-16T08:19:49;1.97;;;0.80;;
18102;SDS011;9178;51.120;6.192;2023-01-16T08:22:16;1.93;;;0.93;;
18102;SDS011;9178;51.120;6.192;2023-01-16T08:24:43;1.17;;;0.60;;
18102;SDS011;9178;51.120;6.192;2023-01-16T08:27:12;1.43;;;0.60;;
18102;SDS011;9178;51.120;6.192;2023-01-16T08:29:38;3.23;;;0.73;;
18102;SDS011;9178;51.120;6.192;2023-01-16T08:32:05;2.73;;;0.80;;
18102;SDS011;9178;51.120;6.192;2023-01-16T08:34:32;1.47;;;0.83;;
18102;SDS011;9178;51.120;6.192;2023-01-16T08:37:00;1.60;;;0.63;;
18102;SDS011;9178;51.120;6.192;2023-01-16T08:39:29;0.77;;;0.70;;
18102;SDS011;9178;51.120;6.192;2023-01-16T08:41:56;1.73;;;0.73;;
18102;SDS011;9178;51.120;6.192;2023-01-16T08:44:40;2.37;;;0.80;;
18102;SDS011;9178;51.120;6.192;2023-01-16T08:47:24;0.87;;;0.50;;
18102;SDS011;9178;51.120;6.192;2023-01-16T08:50:09;1.30;;;0.87;;
18102;SDS011;9178;51.120;6.192;2023-01-16T08:52:56;1.03;;;0.60;;
18102;SDS011;9178;51.120;6.192;2023-01-16T08:55:23;1.00;;;0.50;;
18102;SDS011;9178;51.120;6.192;2023-01-16T08:57:50;1.67;;;0.70;;
18102;SDS011;9178;51.120;6.192;2023-01-16T09:00:17;1.57;;;0.60;;
18102;SDS011;9178;51.120;6.192;2023-01-16T09:02:45;1.27;;;0.50;;
18102;SDS011;9178;51.120;6.192;2023-01-16T09:05:12;1.67;;;0.80;;
18102;SDS011;9178;51.120;6.192;2023-01-16T09:07:39;2.00;;;0.50;;
18102;SDS011;9178;51.120;6.192;2023-01-16T09:10:08;0.33;;;0.33;;
18102;SDS011;9178;51.120;6.192;2023-01-16T09:12:36;0.77;;;0.40;;
18102;SDS011;9178;51.120;6.192;2023-01-16T09:15:20;2.53;;;0.70;;
18102;SDS011;9178;51.120;6.192;2023-01-16T09:17:47;0.33;;;0.30;;
18102;SDS011;9178;51.120;6.192;2023-01-16T09:20:14;1.27;;;0.60;;
18102;SDS011;9178;51.120;6.192;2023-01-16T09:22:41;2.33;;;0.53;;
18102;SDS011;9178;51.120;6.192;2023-01-16T09:25:10;0.30;;;0.30;;
18102;SDS011;9178;51.120;6.192;2023-01-16T09:27:36;0.60;;;0.37;;
18102;SDS011;9178;51.120;6.192;2023-01-16T09:30:04;1.53;;;0.60;;
18102;SDS011;9178;51.120;6.192;2023-01-16T09:32:34;1.57;;;0.50;;
18102;SDS011;9178;51.120;6.192;2023-01-16T09:35:01;2.80;;;0.90;;
18102;SDS011;9178;51.120;6.192;2023-01-16T09:37:27;1.07;;;0.60;;
18102;SDS011;9178;51.120;6.192;2023-01-16T09:39:54;1.17;;;0.80;;
18102;SDS011;9178;51.120;6.192;2023-01-16T09:42:27;0.53;;;0.30;;
18102;SDS011;9178;51.120;6.192;2023-01-16T09:45:25;0.37;;;0.37;;
18102;SDS011;9178;51.120;6.192;2023-01-16T09:47:55;0.30;;;0.30;;
18102;SDS011;9178;51.120;6.192;2023-01-16T09:50:29;1.43;;;0.60;;
18102;SDS011;9178;51.120;6.192;2023-01-16T09:52:59;2.10;;;0.33;;
18102;SDS011;9178;51.120;6.192;2023-01-16T09:55:45;0.43;;;0.40;;
18102;SDS011;9178;51.120;6.192;2023-01-16T09:58:32;0.43;;;0.40;;
18102;SDS011;9178;51.120;6.192;2023-01-16T10:01:02;1.90;;;0.50;;
18102;SDS011;9178;51.120;6.192;2023-01-16T10:03:31;0.30;;;0.30;;
18102;SDS011;9178;51.120;6.192;2023-01-16T10:06:00;0.30;;;0.30;;
18102;SDS011;9178;51.120;6.192;2023-01-16T10:08:37;2.30;;;0.50;;
18102;SDS011;9178;51.120;6.192;2023-01-16T10:11:11;2.23;;;0.93;;
18102;SDS011;9178;51.120;6.192;2023-01-16T10:13:48;0.30;;;0.30;;
18102;SDS011;9178;51.120;6.192;2023-01-16T10:16:31;1.00;;;0.70;;
18102;SDS011;9178;51.120;6.192;2023-01-16T10:19:11;0.80;;;0.30;;
18102;SDS011;9178;51.120;6.192;2023-01-16T10:21:51;0.40;;;0.40;;
18102;SDS011;9178;51.120;6.192;2023-01-16T10:24:32;0.57;;;0.50;;
18102;SDS011;9178;51.120;6.192;2023-01-16T10:27:11;0.50;;;0.43;;
18102;SDS011;9178;51.120;6.192;2023-01-16T10:29:46;0.70;;;0.53;;
18102;SDS011;9178;51.120;6.192;2023-01-16T10:32:22;1.53;;;0.40;;
18102;SDS011;9178;51.120;6.192;2023-01-16T10:34:54;0.43;;;0.40;;
18102;SDS011;9178;51.120;6.192;2023-01-16T10:37:28;0.20;;;0.20;;
18102;SDS011;9178;51.120;6.192;2023-01-16T10:39:57;0.20;;;0.20;;
18102;SDS011;9178;51.120;6.192;2023-01-16T10:42:27;0.87;;;0.30;;
18102;SDS011;9178;51.120;6.192;2023-01-16T10:45:18;0.40;;;0.40;;
18102;SDS011;9178;51.120;6.192;2023-01-16T10:48:07;0.50;;;0.30;;
18102;SDS011;9178;51.120;6.192;2023-01-16T10:50:54;0.70;;;0.70;;
18102;SDS011;9178;51.120;6.192;2023-01-16T10:53:22;0.30;;;0.30;;
18102;SDS011;9178;51.120;6.192;2023-01-16T10:55:49;0.40;;;0.30;;
18102;SDS011;9178;51.120;6.192;2023-01-16T10:58:21;0.90;;;0.30;;
18102;SDS011;9178;51.120;6.192;2023-01-16T11:00:53;0.87;;;0.30;;
18102;SDS011;9178;51.120;6.192;2023-01-16T11:06:09;0.70;;;0.30;;
18102;SDS011;9178;51.120;6.192;2023-01-16T11:08:40;0.30;;;0.30;;
18102;SDS011;9178;51.120;6.192;2023-01-16T11:11:09;1.07;;;0.57;;
18102;SDS011;9178;51.120;6.192;2023-01-16T11:13:52;0.40;;;0.20;;
18102;SDS011;9178;51.120;6.192;2023-01-16T11:16:38;0.47;;;0.30;;
18102;SDS011;9178;51.120;6.192;2023-01-16T11:19:23;0.20;;;0.20;;
18102;SDS011;9178;51.120;6.192;2023-01-16T11:21:54;0.20;;;0.17;;
18102;SDS011;9178;51.120;6.192;2023-01-16T11:24:24;0.40;;;0.20;;
18102;SDS011;9178;51.120;6.192;2023-01-16T11:26:58;0.80;;;0.30;;
18102;SDS011;9178;51.120;6.192;2023-01-16T11:29:33;1.07;;;0.40;;
18102;SDS011;9178;51.120;6.192;2023-01-16T11:32:05;0.50;;;0.30;;
18102;SDS011;9178;51.120;6.192;2023-01-16T11:34:35;0.30;;;0.30;;
18102;SDS011;9178;51.120;6.192;2023-01-16T11:37:05;0.30;;;0.30;;
18102;SDS011;9178;51.120;6.192;2023-01-16T11:39:34;0.57;;;0.40;;
18102;SDS011;9178;51.120;6.192;2023-01-16T11:42:03;0.67;;;0.40;;
18102;SDS011;9178;51.120;6.192;2023-01-16T11:44:56;0.30;;;0.30;;
18102;SDS011;9178;51.120;6.192;2023-01-16T11:47:44;0.77;;;0.40;;
18102;SDS011;9178;51.120;6.192;2023-01-16T11:50:26;0.73;;;0.40;;
18102;SDS011;9178;51.120;6.192;2023-01-16T11:52:55;0.60;;;0.30;;
18102;SDS011;9178;51.120;6.192;2023-01-16T11:55:22;0.80;;;0.40;;
18102;SDS011;9178;51.120;6.192;2023-01-16T11:57:53;0.30;;;0.30;;
18102;SDS011;9178;51.120;6.192;2023-01-16T12:00:30;0.30;;;0.30;;
18102;SDS011;9178;51.120;6.192;2023-01-16T12:03:20;0.70;;;0.40;;
18102;SDS011;9178;51.120;6.192;2023-01-16T12:06:15;0.57;;;0.30;;
18102;SDS011;9178;51.120;6.192;2023-01-16T12:08:59;0.93;;;0.40;;
18102;SDS011;9178;51.120;6.192;2023-01-16T12:11:49;0.50;;;0.30;;
18102;SDS011;9178;51.120;6.192;2023-01-16T12:15:02;0.30;;;0.30;;
18102;SDS011;9178;51.120;6.192;2023-01-16T12:17:38;0.53;;;0.40;;
18102;SDS011;9178;51.120;6.192;2023-01-16T12:20:27;0.77;;;0.30;;
18102;SDS011;9178;51.120;6.192;2023-01-16T12:23:05;1.60;;;0.30;;
18102;SDS011;9178;51.120;6.192;2023-01-16T12:25:55;0.40;;;0.40;;
18102;SDS011;9178;51.120;6.192;2023-01-16T12:28:35;0.47;;;0.23;;
18102;SDS011;9178;51.120;6.192;2023-01-16T12:37:20;0.60;;;0.30;;
18102;SDS011;9178;51.120;6.192;2023-01-16T12:40:04;0.20;;;0.20;;
18102;SDS011;9178;51.120;6.192;2023-01-16T12:42:48;0.30;;;0.30;;
18102;SDS011;9178;51.120;6.192;2023-01-16T12:45:42;0.40;;;0.27;;
18102;SDS011;9178;51.120;6.192;2023-01-16T12:48:27;0.20;;;0.20;;
18102;SDS011;9178;51.120;6.192;2023-01-16T12:51:06;0.17;;;0.17;;
18102;SDS011;9178;51.120;6.192;2023-01-16T12:53:53;0.93;;;0.37;;
18102;SDS011;9178;51.120;6.192;2023-01-16T12:56:37;2.10;;;0.30;;
18102;SDS011;9178;51.120;6.192;2023-01-16T12:59:12;0.67;;;0.30;;
18102;SDS011;9178;51.120;6.192;2023-01-16T13:01:44;0.27;;;0.20;;
18102;SDS011;9178;51.120;6.192;2023-01-16T13:04:15;1.13;;;0.23;;
18102;SDS011;9178;51.120;6.192;2023-01-16T13:06:59;0.10;;;0.10;;
18102;SDS011;9178;51.120;6.192;2023-01-16T13:09:33;0.93;;;0.20;;
18102;SDS011;9178;51.120;6.192;2023-01-16T13:12:05;0.17;;;0.17;;
18102;SDS011;9178;51.120;6.192;2023-01-16T13:14:59;0.10;;;0.10;;
18102;SDS011;9178;51.120;6.192;2023-01-16T13:17:36;0.23;;;0.20;;
18102;SDS011;9178;51.120;6.192;2023-01-16T13:20:09;0.10;;;0.10;;
18102;SDS011;9178;51.120;6.192;2023-01-16T13:22:41;0.10;;;0.10;;
18102;SDS011;9178;51.120;6.192;2023-01-16T13:25:17;0.20;;;0.20;;
18102;SDS011;9178;51.120;6.192;2023-01-16T13:27:49;0.30;;;0.30;;
18102;SDS011;9178;51.120;6.192;2023-01-16T13:30:20;0.37;;;0.30;;
18102;SDS011;9178;51.120;6.192;2023-01-16T13:32:53;0.63;;;0.40;;
18102;SDS011;9178;51.120;6.192;2023-01-16T13:35:25;0.30;;;0.30;;
18102;SDS011;9178;51.120;6.192;2023-01-16T13:38:03;1.37;;;0.70;;
18102;SDS011;9178;51.120;6.192;2023-01-16T13:41:02;1.70;;;0.93;;
18102;SDS011;9178;51.120;6.192;2023-01-16T13:43:39;1.47;;;0.70;;
18102;SDS011;9178;51.120;6.192;2023-01-16T13:46:27;0.90;;;0.77;;
18102;SDS011;9178;51.120;6.192;2023-01-16T13:48:57;1.03;;;0.80;;
18102;SDS011;9178;51.120;6.192;2023-01-16T13:51:27;1.50;;;0.50;;
18102;SDS011;9178;51.120;6.192;2023-01-16T13:53:55;1.03;;;0.50;;
18102;SDS011;9178;51.120;6.192;2023-01-16T13:56:29;0.47;;;0.20;;
18102;SDS011;9178;51.120;6.192;2023-01-16T13:58:57;0.50;;;0.27;;
18102;SDS011;9178;51.120;6.192;2023-01-16T14:01:52;0.13;;;0.13;;
18102;SDS011;9178;51.120;6.192;2023-01-16T14:04:29;0.40;;;0.40;;
18102;SDS011;9178;51.120;6.192;2023-01-16T14:06:58;0.27;;;0.27;;
18102;SDS011;9178;51.120;6.192;2023-01-16T14:12:42;0.20;;;0.20;;
18102;SDS011;9178;51.120;6.192;2023-01-16T14:18:35;0.37;;;0.23;;
18102;SDS011;9178;51.120;6.192;2023-01-16T14:21:09;0.40;;;0.40;;
18102;SDS011;9178;51.120;6.192;2023-01-16T14:23:44;0.20;;;0.20;;
18102;SDS011;9178;51.120;6.192;2023-01-16T14:26:32;0.20;;;0.20;;
18102;SDS011;9178;51.120;6.192;2023-01-16T14:29:21;0.43;;;0.40;;
18102;SDS011;9178;51.120;6.192;2023-01-16T14:31:54;0.97;;;0.30;;
18102;SDS011;9178;51.120;6.192;2023-01-16T14:34:25;0.40;;;0.40;;
18102;SDS011;9178;51.120;6.192;2023-01-16T14:36:54;0.97;;;0.20;;
18102;SDS011;9178;51.120;6.192;2023-01-16T14:39:30;0.30;;;0.30;;
18102;SDS011;9178;51.120;6.192;2023-01-16T14:42:01;0.20;;;0.20;;
18102;SDS011;9178;51.120;6.192;2023-01-16T14:48:09;1.10;;;0.30;;
18102;SDS011;9178;51.120;6.192;2023-01-16T14:50:58;0.33;;;0.30;;
18102;SDS011;9178;51.120;6.192;2023-01-16T14:53:51;0.30;;;0.20;;
18102;SDS011;9178;51.120;6.192;2023-01-16T14:56:38;0.30;;;0.30;;
18102;SDS011;9178;51.120;6.192;2023-01-16T14:59:06;0.37;;;0.30;;
18102;SDS011;9178;51.120;6.192;2023-01-16T15:01:40;0.77;;;0.30;;
18102;SDS011;9178;51.120;6.192;2023-01-16T15:04:28;0.40;;;0.40;;
18102;SDS011;9178;51.120;6.192;2023-01-16T15:07:04;0.50;;;0.30;;
18102;SDS011;9178;51.120;6.192;2023-01-16T15:09:33;0.37;;;0.37;;
18102;SDS011;9178;51.120;6.192;2023-01-16T15:12:09;0.70;;;0.63;;
18102;SDS011;9178;51.120;6.192;2023-01-16T15:14:37;1.43;;;0.67;;
18102;SDS011;9178;51.120;6.192;2023-01-16T15:17:15;1.60;;;1.00;;
18102;SDS011;9178;51.120;6.192;2023-01-16T15:20:09;0.70;;;0.60;;
18102;SDS011;9178;51.120;6.192;2023-01-16T15:23:00;1.03;;;0.70;;
18102;SDS011;9178;51.120;6.192;2023-01-16T15:28:23;0.60;;;0.60;;
18102;SDS011;9178;51.120;6.192;2023-01-16T15:30:59;2.10;;;0.60;;
18102;SDS011;9178;51.120;6.192;2023-01-16T15:33:33;0.60;;;0.60;;
18102;SDS011;9178;51.120;6.192;2023-01-16T15:36:13;0.57;;;0.50;;
18102;SDS011;9178;51.120;6.192;2023-01-16T15:38:44;1.23;;;0.53;;
18102;SDS011;9178;51.120;6.192;2023-01-16T15:41:13;2.63;;;0.70;;
18102;SDS011;9178;51.120;6.192;2023-01-16T15:44:08;3.97;;;0.67;;
18102;SDS011;9178;51.120;6.192;2023-01-16T15:49:54;0.80;;;0.70;;
18102;SDS011;9178;51.120;6.192;2023-01-16T15:52:29;0.90;;;0.90;;
18102;SDS011;9178;51.120;6.192;2023-01-16T15:54:57;1.60;;;1.10;;
18102;SDS011;9178;51.120;6.192;2023-01-16T15:57:25;1.30;;;1.20;;
18102;SDS011;9178;51.120;6.192;2023-01-16T15:59:53;2.50;;;1.10;;
18102;SDS011;9178;51.120;6.192;2023-01-16T16:02:22;2.83;;;1.20;;
18102;SDS011;9178;51.120;6.192;2023-01-16T16:04:54;2.20;;;0.97;;
18102;SDS011;9178;51.120;6.192;2023-01-16T16:07:24;0.90;;;0.90;;